Terminal Aerodrome Forecast
Issued by NWS

Home | Current Version | Previous Version | Text Only | Print | Product List | Glossary Off
Versions: 1 2 3 4 5 6 7 8 9 10 11 12 13 14 15 16 17 18 19 20

000
FTUS43 KGRB 291008 AAB
TAFMTW
TAF AMD
KMTW 291008Z 2910/3006 VRB03KT 6SM BR SCT002 BKN040
      TEMPO 2910/2913 1/2SM FG BKN002
     FM291400 16007KT P6SM BKN025
     FM291700 15009KT P6SM SCT035 BKN250
     FM292300 18003KT P6SM BKN250=

USA.gov is the U.S. government's official web portal to all federal, state and local government web resources and services.